createdAt,value
2023-04-05T00:01:12.287Z,13.07
2023-04-05T00:03:41.196Z,12.86
2023-04-05T00:06:13.131Z,13.24
2023-04-05T00:08:41.314Z,13.08
2023-04-05T00:11:09.152Z,13.40
2023-04-05T00:13:38.070Z,13.02
2023-04-05T00:16:08.160Z,13.47
2023-04-05T00:18:38.558Z,14.31
2023-04-05T00:21:07.099Z,14.05
2023-04-05T00:23:38.349Z,14.22
2023-04-05T00:26:06.415Z,13.31
2023-04-05T00:28:34.674Z,13.16
2023-04-05T00:31:02.523Z,13.41
2023-04-05T00:33:31.673Z,13.44
2023-04-05T00:35:59.498Z,13.08
2023-04-05T00:38:27.311Z,12.93
2023-04-05T00:40:55.037Z,12.85
2023-04-05T00:43:22.977Z,13.00
2023-04-05T00:45:51.020Z,13.03
2023-04-05T00:48:18.864Z,12.88
2023-04-05T00:50:50.697Z,12.67
2023-04-05T00:53:20.186Z,12.55
2023-04-05T00:55:48.844Z,12.18
2023-04-05T00:58:19.213Z,13.72
2023-04-05T01:00:53.822Z,13.23
2023-04-05T01:03:26.218Z,12.81
2023-04-05T01:06:02.975Z,12.89
2023-04-05T01:08:38.954Z,12.67
2023-04-05T01:11:07.923Z,12.14
2023-04-05T01:13:35.734Z,12.29
2023-04-05T01:16:03.596Z,12.14
2023-04-05T01:18:33.033Z,12.39
2023-04-05T01:21:37.968Z,12.55
2023-04-05T01:24:21.068Z,12.20
2023-04-05T01:27:05.653Z,12.02
2023-04-05T01:29:49.999Z,12.28
2023-04-05T01:32:41.456Z,11.59
2023-04-05T01:35:17.771Z,12.02
2023-04-05T01:37:50.330Z,11.94
2023-04-05T01:40:20.189Z,11.43
2023-04-05T01:42:48.018Z,11.56
2023-04-05T01:45:17.250Z,11.73
2023-04-05T01:47:45.101Z,11.73
2023-04-05T01:50:13.611Z,11.55
2023-04-05T01:52:41.678Z,11.46
2023-04-05T01:55:10.193Z,11.58
2023-04-05T01:57:39.066Z,11.49
2023-04-05T02:00:08.155Z,11.46
2023-04-05T02:02:42.022Z,11.52
2023-04-05T02:05:10.502Z,11.53
2023-04-05T02:07:38.243Z,11.49
2023-04-05T02:10:07.031Z,11.37
2023-04-05T02:12:34.850Z,11.53
2023-04-05T02:15:02.620Z,11.71
2023-04-05T02:17:34.005Z,11.29
2023-04-05T02:20:04.535Z,11.27
2023-04-05T02:22:33.898Z,11.49
2023-04-05T02:25:03.482Z,11.25
2023-04-05T02:27:31.535Z,11.27
2023-04-05T02:29:59.335Z,11.14
2023-04-05T02:32:27.213Z,11.39
2023-04-05T02:34:55.275Z,11.12
2023-04-05T02:37:27.114Z,11.69
2023-04-05T02:39:55.188Z,12.59
2023-04-05T02:42:23.004Z,12.92
2023-04-05T02:44:52.380Z,12.86
2023-04-05T02:47:22.302Z,12.85
2023-04-05T02:49:59.714Z,13.36
2023-04-05T02:52:34.250Z,12.99
2023-04-05T02:55:02.153Z,13.28
2023-04-05T02:57:32.402Z,12.51
2023-04-05T03:00:08.508Z,11.60
2023-04-05T03:02:37.630Z,11.57
2023-04-05T03:05:07.863Z,11.87
2023-04-05T03:07:38.133Z,12.10
2023-04-05T03:10:10.468Z,11.41
2023-04-05T03:12:41.508Z,11.58
2023-04-05T03:15:11.768Z,11.67
2023-04-05T03:17:44.220Z,11.72
2023-04-05T03:20:14.262Z,11.50
2023-04-05T03:22:43.849Z,11.25
2023-04-05T03:25:12.902Z,11.75
2023-04-05T03:27:46.418Z,11.22
2023-04-05T03:30:17.319Z,11.63
2023-04-05T03:32:54.661Z,12.25
2023-04-05T03:35:39.539Z,12.42
2023-04-05T03:38:11.634Z,12.81
2023-04-05T03:40:46.894Z,12.23
2023-04-05T03:43:14.890Z,12.30
2023-04-05T03:45:43.103Z,12.46
2023-04-05T03:48:12.133Z,12.07
2023-04-05T03:50:40.069Z,11.80
2023-04-05T03:53:07.862Z,12.02
2023-04-05T03:55:38.040Z,12.11
2023-04-05T03:58:08.068Z,12.25
2023-04-05T04:00:37.573Z,11.97
2023-04-05T04:03:16.483Z,12.18
2023-04-05T04:05:47.734Z,12.15
2023-04-05T04:08:15.641Z,12.22
2023-04-05T04:10:44.943Z,12.03
2023-04-05T04:13:20.303Z,12.24
2023-04-05T04:15:58.904Z,12.18
2023-04-05T04:18:36.417Z,12.20
2023-04-05T04:21:25.578Z,12.13
2023-04-05T04:24:16.432Z,12.34
2023-04-05T04:27:17.057Z,12.40
2023-04-05T04:30:04.718Z,12.71
2023-04-05T04:32:52.970Z,12.53
2023-04-05T04:35:38.877Z,12.59
2023-04-05T04:38:26.115Z,12.18
2023-04-05T04:41:12.899Z,12.05
2023-04-05T04:43:55.000Z,11.88
2023-04-05T04:46:42.747Z,12.02
2023-04-05T04:49:17.249Z,12.17
2023-04-05T04:51:49.323Z,11.79
2023-04-05T04:54:22.183Z,12.33
2023-04-05T04:56:49.943Z,11.96
2023-04-05T04:59:19.140Z,12.04
2023-04-05T05:01:47.025Z,11.92
2023-04-05T05:04:14.865Z,11.59
2023-04-05T05:06:43.805Z,11.89
2023-04-05T05:09:11.886Z,11.56
2023-04-05T05:11:50.369Z,11.78
2023-04-05T05:14:19.492Z,11.45
2023-04-05T05:16:47.429Z,11.92
2023-04-05T05:19:15.413Z,11.77
2023-04-05T05:21:50.130Z,12.17
2023-04-05T05:24:18.157Z,11.85
2023-04-05T05:26:45.930Z,12.01
2023-04-05T05:29:13.646Z,11.81
2023-04-05T05:31:46.066Z,11.28
2023-04-05T05:34:13.783Z,11.11
2023-04-05T05:36:48.359Z,11.32
2023-04-05T05:39:16.712Z,11.02
2023-04-05T05:41:45.472Z,11.16
2023-04-05T05:44:13.312Z,11.60
2023-04-05T05:46:41.178Z,12.31
2023-04-05T05:49:10.438Z,12.86
2023-04-05T05:51:38.351Z,12.91
2023-04-05T05:54:06.216Z,12.58
2023-04-05T05:56:34.080Z,12.59
2023-04-05T05:59:01.950Z,13.39
2023-04-05T06:01:29.734Z,12.87
2023-04-05T06:03:57.541Z,12.91
2023-04-05T06:06:27.025Z,13.00
2023-04-05T06:08:54.816Z,12.99
2023-04-05T06:11:23.906Z,13.09
2023-04-05T06:13:52.428Z,12.45
2023-04-05T06:16:20.176Z,12.61
2023-04-05T06:18:48.557Z,12.92
2023-04-05T06:21:16.475Z,13.11
2023-04-05T06:23:45.545Z,13.49
2023-04-05T06:26:18.806Z,13.25
2023-04-05T06:28:47.958Z,13.09
2023-04-05T06:31:17.404Z,14.08
2023-04-05T06:33:45.467Z,14.29
2023-04-05T06:36:13.365Z,13.82
2023-04-05T06:38:41.073Z,13.99
2023-04-05T06:41:10.284Z,13.91
2023-04-05T06:43:38.022Z,13.16
2023-04-05T06:46:08.708Z,12.84
2023-04-05T06:48:36.478Z,14.08
2023-04-05T06:51:05.099Z,14.71
2023-04-05T06:53:32.920Z,13.65
2023-04-05T06:56:01.223Z,13.24
2023-04-05T06:58:30.852Z,13.27
2023-04-05T07:00:58.874Z,13.30
2023-04-05T07:03:26.673Z,14.74
2023-04-05T07:05:56.842Z,15.37
2023-04-05T07:08:24.996Z,15.69
2023-04-05T07:10:53.379Z,15.09
2023-04-05T07:13:23.283Z,14.58
2023-04-05T07:15:52.786Z,14.87
2023-04-05T07:18:20.973Z,15.45
2023-04-05T07:20:49.979Z,15.82
2023-04-05T07:23:20.011Z,15.37
2023-04-05T07:25:48.494Z,14.88
2023-04-05T07:28:16.437Z,14.50
2023-04-05T07:30:44.247Z,14.62
2023-04-05T07:33:13.799Z,14.48
2023-04-05T07:35:41.624Z,13.78
2023-04-05T07:38:11.379Z,13.50
2023-04-05T07:40:39.519Z,14.97
2023-04-05T07:43:07.365Z,15.15
2023-04-05T07:45:35.085Z,16.50
2023-04-05T07:48:02.805Z,15.93
2023-04-05T07:50:32.081Z,16.20
2023-04-05T07:52:59.887Z,16.38
2023-04-05T07:55:27.963Z,16.72
2023-04-05T07:57:55.941Z,15.90
2023-04-05T08:00:23.960Z,14.29
2023-04-05T08:02:51.804Z,15.19
2023-04-05T08:05:19.655Z,15.61
2023-04-05T08:07:49.109Z,17.00
2023-04-05T08:10:16.839Z,17.26
2023-04-05T08:12:44.573Z,17.17
2023-04-05T08:15:12.529Z,16.05
2023-04-05T08:17:40.383Z,15.32
2023-04-05T08:20:09.657Z,15.57
2023-04-05T08:22:37.602Z,16.71
2023-04-05T08:25:08.003Z,16.34
2023-04-05T08:27:35.853Z,16.69
2023-04-05T08:30:04.174Z,15.39
2023-04-05T08:32:33.086Z,14.98
2023-04-05T08:35:00.876Z,15.26
2023-04-05T08:37:28.761Z,16.18
2023-04-05T08:39:56.543Z,17.52
2023-04-05T08:42:31.371Z,16.47
2023-04-05T08:45:02.325Z,14.93
2023-04-05T08:47:31.046Z,17.21
2023-04-05T08:49:58.919Z,16.33
2023-04-05T08:52:26.979Z,15.96
2023-04-05T08:54:55.308Z,16.65
2023-04-05T08:57:30.117Z,17.41
2023-04-05T08:59:59.421Z,17.28
2023-04-05T09:02:28.025Z,16.66
2023-04-05T09:04:56.500Z,17.01
2023-04-05T09:07:25.025Z,17.35
2023-04-05T09:09:57.038Z,16.81
2023-04-05T09:12:26.739Z,16.93
2023-04-05T09:14:56.858Z,18.70
2023-04-05T09:17:25.101Z,19.44
2023-04-05T09:19:52.948Z,17.71
2023-04-05T09:22:20.704Z,17.58
2023-04-05T09:24:48.740Z,17.27
2023-04-05T09:27:21.634Z,18.62
2023-04-05T09:29:56.874Z,18.49
2023-04-05T09:32:28.269Z,18.29
2023-04-05T09:34:56.311Z,18.87
2023-04-05T09:37:27.497Z,19.37
2023-04-05T09:40:05.180Z,19.58
2023-04-05T09:42:44.408Z,18.55
2023-04-05T09:45:14.177Z,17.73
2023-04-05T09:47:56.465Z,16.52
2023-04-05T09:50:24.497Z,19.00
2023-04-05T09:53:07.615Z,18.94
2023-04-05T09:55:35.873Z,19.68
2023-04-05T09:58:04.330Z,20.77
2023-04-05T10:00:34.225Z,19.48
2023-04-05T10:03:02.200Z,19.97
2023-04-05T10:05:30.432Z,18.83
2023-04-05T10:07:58.199Z,18.79
2023-04-05T10:10:26.745Z,17.55
2023-04-05T10:12:55.161Z,16.74
2023-04-05T10:15:26.315Z,16.93
2023-04-05T10:18:09.847Z,19.06
2023-04-05T10:20:41.664Z,17.52
2023-04-05T10:23:13.759Z,17.77
2023-04-05T10:25:52.576Z,16.89
2023-04-05T10:28:31.470Z,18.97
2023-04-05T10:31:05.448Z,17.63
2023-04-05T10:33:42.281Z,18.05
2023-04-05T10:36:18.476Z,19.36
2023-04-05T10:39:01.707Z,19.50
2023-04-05T10:41:34.941Z,18.09
2023-04-05T10:44:12.077Z,16.54
2023-04-05T10:46:47.487Z,17.79
2023-04-05T10:49:23.586Z,18.49
2023-04-05T10:51:51.907Z,17.00
2023-04-05T10:54:21.617Z,18.00
2023-04-05T10:56:50.508Z,16.53
2023-04-05T10:59:19.736Z,18.26
2023-04-05T11:01:48.362Z,16.52
2023-04-05T11:04:16.844Z,18.14
2023-04-05T11:06:47.992Z,18.02
2023-04-05T11:09:20.397Z,17.17
2023-04-05T11:11:49.639Z,18.79
2023-04-05T11:14:22.695Z,18.78
2023-04-05T11:16:55.379Z,18.20
2023-04-05T11:19:49.690Z,18.24
2023-04-05T11:22:26.966Z,18.59
2023-04-05T11:24:57.876Z,18.27
2023-04-05T11:27:30.045Z,18.21
2023-04-05T11:29:58.835Z,20.42
2023-04-05T11:32:40.528Z,19.84
2023-04-05T11:35:13.583Z,19.63
2023-04-05T11:38:08.356Z,21.93
2023-04-05T11:40:37.817Z,21.73
2023-04-05T11:43:07.663Z,18.93
2023-04-05T11:45:36.894Z,21.85
2023-04-05T11:48:07.180Z,20.48
2023-04-05T11:50:36.648Z,20.53
2023-04-05T11:53:15.533Z,19.37
2023-04-05T11:55:45.518Z,20.17
2023-04-05T11:58:14.718Z,20.15
2023-04-05T12:00:43.148Z,18.77
2023-04-05T12:03:14.637Z,18.48
2023-04-05T12:05:53.263Z,21.07
2023-04-05T12:08:23.741Z,19.11
2023-04-05T12:10:56.335Z,19.93
2023-04-05T12:13:29.049Z,22.89
2023-04-05T12:15:59.072Z,23.29
2023-04-05T12:18:27.841Z,21.91
2023-04-05T12:20:56.043Z,22.73
2023-04-05T12:23:26.321Z,21.35
2023-04-05T12:25:56.840Z,19.35
2023-04-05T12:28:24.875Z,19.39
2023-04-05T12:30:54.127Z,20.27
2023-04-05T12:33:37.340Z,20.87
2023-04-05T12:36:07.164Z,21.42
2023-04-05T12:38:38.408Z,22.58
2023-04-05T12:41:06.675Z,22.59
2023-04-05T12:43:39.585Z,21.42
2023-04-05T12:46:18.946Z,18.91
2023-04-05T12:48:51.670Z,18.43
2023-04-05T12:51:19.461Z,20.00
2023-04-05T12:53:48.688Z,20.40
2023-04-05T12:56:17.600Z,21.46
2023-04-05T12:58:50.411Z,21.88
2023-04-05T13:01:19.177Z,22.15
2023-04-05T13:03:49.712Z,22.33
2023-04-05T13:06:17.896Z,22.80
2023-04-05T13:08:50.335Z,22.96
2023-04-05T13:11:18.136Z,21.47
2023-04-05T13:13:46.026Z,21.65
2023-04-05T13:16:14.210Z,21.50
2023-04-05T13:18:42.061Z,19.70
2023-04-05T13:21:10.093Z,19.84
2023-04-05T13:23:39.465Z,20.49
2023-04-05T13:26:09.538Z,22.37
2023-04-05T13:28:37.376Z,20.70
2023-04-05T13:31:06.375Z,20.27
2023-04-05T13:33:34.569Z,20.97
2023-04-05T13:36:02.335Z,21.77
2023-04-05T13:38:30.126Z,20.65
2023-04-05T13:40:57.918Z,19.79
2023-04-05T13:43:27.952Z,20.20
2023-04-05T13:45:55.859Z,20.70
2023-04-05T13:48:23.642Z,20.42
2023-04-05T13:50:51.488Z,20.71
2023-04-05T13:53:19.582Z,22.14
2023-04-05T13:55:47.449Z,22.66
2023-04-05T13:58:15.242Z,22.20
2023-04-05T14:00:44.497Z,21.26
2023-04-05T14:03:12.416Z,22.40
2023-04-05T14:05:40.229Z,19.63
2023-04-05T14:08:08.050Z,20.82
2023-04-05T14:10:35.899Z,19.78
2023-04-05T14:13:03.720Z,19.41
2023-04-05T14:15:31.827Z,18.45
2023-04-05T14:18:03.040Z,17.96
2023-04-05T14:20:32.884Z,19.02
2023-04-05T14:23:01.630Z,19.51
2023-04-05T14:25:29.958Z,20.16
2023-04-05T14:27:57.920Z,20.15
2023-04-05T14:30:26.106Z,20.40
2023-04-05T14:32:54.244Z,19.72
2023-04-05T14:35:23.736Z,18.68
2023-04-05T14:37:51.710Z,17.78
2023-04-05T14:40:19.797Z,20.06
2023-04-05T14:42:52.197Z,20.03
2023-04-05T14:45:20.255Z,19.60
2023-04-05T14:47:48.358Z,19.22
2023-04-05T14:50:16.520Z,20.49
2023-04-05T14:52:46.533Z,20.78
2023-04-05T14:55:16.474Z,21.27
2023-04-05T14:57:44.715Z,21.33
2023-04-05T15:00:13.919Z,21.66
2023-04-05T15:02:42.178Z,21.23
2023-04-05T15:05:10.985Z,21.10
2023-04-05T15:07:39.220Z,20.02
2023-04-05T15:10:09.424Z,19.84
2023-04-05T15:12:37.476Z,21.79
2023-04-05T15:15:06.240Z,21.85
2023-04-05T15:17:34.186Z,21.23
2023-04-05T15:20:02.162Z,20.47
2023-04-05T15:22:41.019Z,19.73
2023-04-05T15:25:12.112Z,19.70
2023-04-05T15:27:40.045Z,20.36
2023-04-05T15:30:09.297Z,20.72
2023-04-05T15:32:37.997Z,20.93
2023-04-05T15:35:07.209Z,21.63
2023-04-05T15:37:44.088Z,22.70
2023-04-05T15:40:13.619Z,21.43
2023-04-05T15:42:41.515Z,19.08
2023-04-05T15:45:10.448Z,21.00
2023-04-05T15:47:38.656Z,20.29
2023-04-05T15:50:07.168Z,21.88
2023-04-05T15:52:35.673Z,21.24
2023-04-05T15:55:04.050Z,20.23
2023-04-05T15:57:33.566Z,20.45
2023-04-05T16:00:01.580Z,21.23
2023-04-05T16:02:31.364Z,19.30
2023-04-05T16:04:59.462Z,19.37
2023-04-05T16:07:27.660Z,20.70
2023-04-05T16:09:55.706Z,20.61
2023-04-05T16:12:23.857Z,18.83
2023-04-05T16:14:53.406Z,21.37
2023-04-05T16:17:21.702Z,22.38
2023-04-05T16:19:49.990Z,21.27
2023-04-05T16:22:18.082Z,20.02
2023-04-05T16:24:46.139Z,18.63
2023-04-05T16:27:14.206Z,20.18
2023-04-05T16:29:42.212Z,21.04
2023-04-05T16:32:11.722Z,19.10
2023-04-05T16:34:39.800Z,18.58
2023-04-05T16:37:07.764Z,18.70
2023-04-05T16:39:35.798Z,17.68
2023-04-05T16:42:04.133Z,18.44
2023-04-05T16:44:32.420Z,18.86
2023-04-05T16:47:00.334Z,19.16
2023-04-05T16:49:29.841Z,18.81
2023-04-05T16:51:57.825Z,20.08
2023-04-05T16:54:25.841Z,19.68
2023-04-05T16:56:54.024Z,19.65
2023-04-05T16:59:22.226Z,19.15
2023-04-05T17:01:50.445Z,19.22
2023-04-05T17:04:18.724Z,19.33
2023-04-05T17:06:48.192Z,18.94
2023-04-05T17:09:16.533Z,18.69
2023-04-05T17:11:44.673Z,18.19
2023-04-05T17:14:12.788Z,18.15
2023-04-05T17:16:41.000Z,18.42
2023-04-05T17:19:09.088Z,18.79
2023-04-05T17:21:37.040Z,17.43
2023-04-05T17:24:07.028Z,16.59
2023-04-05T17:26:35.290Z,17.88
2023-04-05T17:29:03.505Z,16.79
2023-04-05T17:31:33.384Z,16.95
2023-04-05T17:34:01.955Z,17.31
2023-04-05T17:36:30.032Z,16.84
2023-04-05T17:38:58.175Z,17.73
2023-04-05T17:41:27.604Z,16.68
2023-04-05T17:43:55.636Z,17.31
2023-04-05T17:46:34.043Z,16.17
2023-04-05T17:49:06.135Z,16.10
2023-04-05T17:51:34.364Z,16.27
2023-04-05T17:54:02.339Z,16.95
2023-04-05T17:56:31.811Z,16.44
2023-04-05T17:59:00.045Z,16.73
2023-04-05T18:01:28.172Z,17.09
2023-04-05T18:03:56.436Z,16.03
2023-04-05T18:06:24.453Z,15.77
2023-04-05T18:08:52.453Z,15.93
2023-04-05T18:11:20.448Z,16.02
2023-04-05T18:13:49.770Z,15.96
2023-04-05T18:16:17.776Z,15.63
2023-04-05T18:18:45.740Z,15.91
2023-04-05T18:21:13.664Z,16.18
2023-04-05T18:23:41.941Z,16.07
2023-04-05T18:26:09.984Z,16.29
2023-04-05T18:28:37.949Z,16.23
2023-04-05T18:31:09.415Z,16.05
2023-04-05T18:33:39.356Z,15.74
2023-04-05T18:36:07.837Z,16.09
2023-04-05T18:38:35.806Z,16.87
2023-04-05T18:41:04.638Z,16.08
2023-04-05T18:43:32.810Z,16.32
2023-04-05T18:46:00.795Z,15.46
2023-04-05T18:48:30.318Z,16.17
2023-04-05T18:50:58.166Z,16.00
2023-04-05T18:53:26.289Z,16.09
2023-04-05T18:55:54.556Z,16.32
2023-04-05T18:58:22.429Z,16.58
2023-04-05T19:00:50.494Z,16.44
2023-04-05T19:03:18.595Z,17.12
2023-04-05T19:05:51.774Z,16.37
2023-04-05T19:08:20.282Z,15.62
2023-04-05T19:10:48.299Z,15.92
2023-04-05T19:13:17.451Z,15.56
2023-04-05T19:15:46.133Z,15.39
2023-04-05T19:18:14.085Z,15.31
2023-04-05T19:20:42.001Z,16.15
2023-04-05T19:23:13.553Z,16.53
2023-04-05T19:25:41.684Z,16.32
2023-04-05T19:28:09.555Z,15.74
2023-04-05T19:30:40.147Z,15.74
2023-04-05T19:33:08.090Z,16.51
2023-04-05T19:35:36.415Z,15.88
2023-04-05T19:38:04.897Z,16.34
2023-04-05T19:40:34.301Z,15.81
2023-04-05T19:43:02.724Z,15.69
2023-04-05T19:45:32.072Z,16.12
2023-04-05T19:48:02.033Z,15.99
2023-04-05T19:50:47.275Z,15.66
2023-04-05T19:53:36.346Z,15.64
2023-04-05T19:56:09.199Z,16.18
2023-04-05T19:58:38.767Z,16.61
2023-04-05T20:01:08.043Z,15.60
2023-04-05T20:03:37.808Z,15.96
2023-04-05T20:06:11.096Z,16.72
2023-04-05T20:08:40.468Z,16.44
2023-04-05T20:11:13.338Z,16.21
2023-04-05T20:13:45.974Z,15.92
2023-04-05T20:16:15.859Z,16.34
2023-04-05T20:18:47.931Z,16.80
2023-04-05T20:21:17.259Z,16.04
2023-04-05T20:23:45.590Z,16.69
2023-04-05T20:26:17.245Z,17.04
2023-04-05T20:28:53.345Z,16.92
2023-04-05T20:31:23.240Z,17.02
2023-04-05T20:33:54.764Z,17.01
2023-04-05T20:36:24.460Z,16.71
2023-04-05T20:38:52.390Z,16.17
2023-04-05T20:41:21.745Z,16.19
2023-04-05T20:43:49.688Z,15.91
2023-04-05T20:46:17.794Z,15.57
2023-04-05T20:48:46.739Z,15.14
2023-04-05T20:51:15.584Z,15.15
2023-04-05T20:53:43.945Z,15.96
2023-04-05T20:56:12.727Z,15.67
2023-04-05T20:58:42.581Z,15.41
2023-04-05T21:01:11.730Z,15.99
2023-04-05T21:03:41.558Z,15.40
2023-04-05T21:06:11.214Z,16.03
2023-04-05T21:08:41.304Z,16.59
2023-04-05T21:11:10.708Z,15.97
2023-04-05T21:13:39.094Z,16.20
2023-04-05T21:16:08.873Z,16.00
2023-04-05T21:18:37.191Z,16.36
2023-04-05T21:21:05.753Z,16.08
2023-04-05T21:23:34.355Z,16.33
2023-04-05T21:26:04.173Z,16.07
2023-04-05T21:28:32.176Z,15.53
2023-04-05T21:31:00.115Z,15.33
2023-04-05T21:33:29.578Z,15.20
2023-04-05T21:35:57.482Z,15.35
2023-04-05T21:38:25.417Z,15.98
2023-04-05T21:40:55.180Z,15.79
2023-04-05T21:43:23.070Z,15.71
2023-04-05T21:45:52.805Z,15.21
2023-04-05T21:48:21.175Z,15.40
2023-04-05T21:50:50.559Z,15.71
2023-04-05T21:53:18.773Z,15.93
2023-04-05T21:55:46.653Z,15.70
2023-04-05T21:58:14.502Z,15.88
2023-04-05T22:00:42.493Z,15.84
2023-04-05T22:03:10.473Z,15.45
2023-04-05T22:05:39.026Z,15.41
2023-04-05T22:08:08.783Z,15.40
2023-04-05T22:10:37.807Z,15.56
2023-04-05T22:13:06.000Z,15.82
2023-04-05T22:15:34.372Z,15.95
2023-04-05T22:18:02.845Z,15.79
2023-04-05T22:20:31.271Z,15.71
2023-04-05T22:22:59.192Z,16.12
2023-04-05T22:25:28.596Z,15.61
2023-04-05T22:28:00.002Z,15.74
2023-04-05T22:30:28.736Z,15.97
2023-04-05T22:32:56.972Z,15.49
2023-04-05T22:35:25.028Z,15.71
2023-04-05T22:37:53.016Z,15.76
2023-04-05T22:40:26.220Z,15.82
2023-04-05T22:42:55.694Z,15.21
2023-04-05T22:45:24.979Z,14.50
2023-04-05T22:47:53.055Z,14.86
2023-04-05T22:50:21.427Z,15.36
2023-04-05T22:52:49.364Z,15.74
2023-04-05T22:55:17.525Z,14.99
2023-04-05T22:57:45.421Z,14.48
2023-04-05T23:00:15.924Z,14.65
2023-04-05T23:02:44.117Z,14.32
2023-04-05T23:05:12.997Z,15.29
2023-04-05T23:07:41.037Z,15.36
2023-04-05T23:10:09.596Z,15.21
2023-04-05T23:12:37.516Z,15.28
2023-04-05T23:15:07.839Z,15.31
2023-04-05T23:17:37.808Z,15.17
2023-04-05T23:20:07.066Z,14.67
2023-04-05T23:22:36.049Z,15.05
2023-04-05T23:25:04.364Z,15.42
2023-04-05T23:27:32.558Z,15.07
2023-04-05T23:30:00.411Z,14.41
2023-04-05T23:32:28.309Z,14.58
2023-04-05T23:34:57.644Z,14.48
2023-04-05T23:37:25.861Z,13.23
2023-04-05T23:39:53.785Z,13.23
2023-04-05T23:42:21.778Z,13.42
2023-04-05T23:44:49.658Z,13.49
2023-04-05T23:47:17.703Z,13.44
2023-04-05T23:49:45.576Z,13.30
2023-04-05T23:52:15.110Z,13.37
2023-04-05T23:54:43.014Z,13.15
2023-04-05T23:57:11.258Z,12.94
2023-04-05T23:59:39.270Z,12.40
